Terminal Aerodrome Forecast
Issued by NWS Flagstaff, AZ

Home | Current Version | Previous Version | Text Only | Print | Product List | Glossary On
Versions: 1 2 3 4 5 6 7 8 9 10 11 12 13 14 15
000
FTUS45 KFGZ 182300
TAFINW
TAF
KINW 182334Z 1900/1924 VRB06KT P6SM SCT090
     FM190200 16007KT P6SM FEW100
     FM191600 VRB05KT P6SM FEW150
     FM192000 32007KT P6SM FEW150=

USA.gov is the U.S. government's official web portal to all federal, state and local government web resources and services.